Time,TemperatureF,DewpointF,PressureIn,WindDirection,WindDirectionDegrees,WindSpeedMPH,WindSpeedGustMPH,Humidity,HourlyPrecipIn,Conditions,Clouds,dailyrainin,SoftwareType,DateUTC
2013-07-18 00:01:00,62.5,50.5,30.19,North,0,0.0,0.0,65,0.00,,,0.00,WUHU216HW,2013-07-18 06:01:00,
2013-07-18 00:06:00,62.3,50.3,30.19,North,0,0.0,0.0,65,0.00,,,0.00,WUHU216HW,2013-07-18 06:06:00,
2013-07-18 00:11:00,62.1,50.2,30.20,North,0,0.0,0.0,65,0.00,,,0.00,WUHU216HW,2013-07-18 06:11:00,
2013-07-18 00:16:00,61.9,51.3,30.20,North,0,0.0,0.0,68,0.00,,,0.00,WUHU216HW,2013-07-18 06:16:00,
2013-07-18 00:21:00,61.7,51.1,30.19,North,0,0.0,0.0,68,0.00,,,0.00,WUHU216HW,2013-07-18 06:21:00,
2013-07-18 00:26:00,61.6,51.4,30.20,North,0,0.0,0.0,69,0.00,,,0.00,WUHU216HW,2013-07-18 06:26:00,
2013-07-18 00:31:00,61.6,51.4,30.20,North,0,0.0,0.0,69,0.00,,,0.00,WUHU216HW,2013-07-18 06:31:00,
2013-07-18 00:36:00,61.4,50.4,30.20,North,0,0.0,0.0,67,0.00,,,0.00,WUHU216HW,2013-07-18 06:36:00,
2013-07-18 00:41:00,61.4,50.8,30.20,North,0,0.0,0.0,68,0.00,,,0.00,WUHU216HW,2013-07-18 06:41:00,
2013-07-18 00:46:00,61.4,50.4,30.20,North,0,0.0,0.0,67,0.00,,,0.00,WUHU216HW,2013-07-18 06:46:00,
2013-07-18 00:51:00,61.6,50.5,30.20,North,0,0.0,0.0,67,0.00,,,0.00,WUHU216HW,2013-07-18 06:51:00,
2013-07-18 00:56:00,61.4,50.4,30.20,North,0,0.0,0.0,67,0.00,,,0.00,WUHU216HW,2013-07-18 06:56:00,
2013-07-18 01:01:00,61.2,50.2,30.20,North,0,0.0,0.0,67,0.00,,,0.00,WUHU216HW,2013-07-18 07:01:00,
2013-07-18 01:06:00,61.0,49.6,30.21,North,0,0.0,0.0,66,0.00,,,0.00,WUHU216HW,2013-07-18 07:06:00,
2013-07-18 01:11:00,61.0,50.0,30.21,North,0,0.0,0.0,67,0.00,,,0.00,WUHU216HW,2013-07-18 07:11:00,
2013-07-18 01:16:00,60.8,49.5,30.21,North,0,0.0,0.0,66,0.00,,,0.00,WUHU216HW,2013-07-18 07:16:00,
2013-07-18 01:21:00,60.7,49.3,30.21,North,0,0.0,0.0,66,0.00,,,0.00,WUHU216HW,2013-07-18 07:21:00,
2013-07-18 01:26:00,60.1,48.8,30.21,North,0,0.0,0.0,66,0.00,,,0.00,WUHU216HW,2013-07-18 07:26:00,
2013-07-18 01:31:00,59.8,48.4,30.21,North,0,0.0,0.0,66,0.00,,,0.00,WUHU216HW,2013-07-18 07:31:00,
2013-07-18 01:36:00,59.4,48.1,30.21,North,0,0.0,0.0,66,0.00,,,0.00,WUHU216HW,2013-07-18 07:36:00,
2013-07-18 01:41:00,59.2,47.9,30.21,North,0,0.0,0.0,66,0.00,,,0.00,WUHU216HW,2013-07-18 07:41:00,
2013-07-18 01:46:00,58.9,47.9,30.21,North,0,0.0,0.0,67,0.00,,,0.00,WUHU216HW,2013-07-18 07:46:00,
2013-07-18 01:51:00,58.7,48.2,30.21,North,0,0.0,0.0,68,0.00,,,0.00,WUHU216HW,2013-07-18 07:51:00,
2013-07-18 01:56:00,58.7,48.5,30.21,North,0,0.0,0.0,69,0.00,,,0.00,WUHU216HW,2013-07-18 07:56:00,
2013-07-18 02:01:00,58.5,48.8,30.20,North,0,0.0,0.0,70,0.00,,,0.00,WUHU216HW,2013-07-18 08:01:00,
2013-07-18 02:06:00,58.5,48.3,30.21,North,0,0.0,0.0,69,0.00,,,0.00,WUHU216HW,2013-07-18 08:06:00,
2013-07-18 02:11:00,58.5,48.3,30.21,North,0,0.0,0.0,69,0.00,,,0.00,WUHU216HW,2013-07-18 08:11:00,
2013-07-18 02:16:00,58.3,48.6,30.21,North,0,0.0,0.0,70,0.00,,,0.00,WUHU216HW,2013-07-18 08:16:00,
2013-07-18 02:21:00,58.3,49.7,30.20,North,0,0.0,0.0,73,0.00,,,0.00,WUHU216HW,2013-07-18 08:21:00,
2013-07-18 02:26:00,58.0,48.6,30.20,North,0,0.0,0.0,71,0.00,,,0.00,WUHU216HW,2013-07-18 08:26:00,
2013-07-18 02:31:00,58.0,50.0,30.20,North,0,0.0,0.0,75,0.00,,,0.00,WUHU216HW,2013-07-18 08:31:00,
2013-07-18 02:36:00,57.8,49.1,30.20,North,0,0.0,0.0,73,0.00,,,0.00,WUHU216HW,2013-07-18 08:36:00,
2013-07-18 02:41:00,57.6,49.7,30.20,North,0,0.0,0.0,75,0.00,,,0.00,WUHU216HW,2013-07-18 08:41:00,
2013-07-18 02:46:00,57.6,49.7,30.20,North,0,0.0,0.0,75,0.00,,,0.00,WUHU216HW,2013-07-18 08:46:00,
2013-07-18 02:51:00,57.6,49.3,30.20,North,0,0.0,0.0,74,0.00,,,0.00,WUHU216HW,2013-07-18 08:51:00,
2013-07-18 02:56:00,57.4,49.1,30.20,North,0,0.0,0.0,74,0.00,,,0.00,WUHU216HW,2013-07-18 08:56:00,
2013-07-18 03:01:00,57.4,49.1,30.20,North,0,0.0,0.0,74,0.00,,,0.00,WUHU216HW,2013-07-18 09:01:00,
2013-07-18 03:06:00,57.4,49.1,30.20,North,0,0.0,0.0,74,0.00,,,0.00,WUHU216HW,2013-07-18 09:06:00,
2013-07-18 03:11:00,57.2,49.3,30.21,North,0,0.0,0.0,75,0.00,,,0.00,WUHU216HW,2013-07-18 09:11:00,
2013-07-18 03:16:00,57.2,49.3,30.20,North,0,0.0,0.0,75,0.00,,,0.00,WUHU216HW,2013-07-18 09:16:00,
2013-07-18 03:21:00,57.2,49.3,30.20,North,0,0.0,0.0,75,0.00,,,0.00,WUHU216HW,2013-07-18 09:21:00,
2013-07-18 03:26:00,57.2,49.3,30.20,North,0,0.0,0.0,75,0.00,,,0.00,WUHU216HW,2013-07-18 09:26:00,
2013-07-18 03:31:00,57.2,49.0,30.20,North,0,0.0,0.0,74,0.00,,,0.00,WUHU216HW,2013-07-18 09:31:00,
2013-07-18 03:36:00,57.2,49.3,30.20,North,0,0.0,0.0,75,0.00,,,0.00,WUHU216HW,2013-07-18 09:36:00,
2013-07-18 03:41:00,57.1,49.1,30.20,North,0,0.0,0.0,75,0.00,,,0.00,WUHU216HW,2013-07-18 09:41:00,
2013-07-18 03:46:00,57.1,49.1,30.20,North,0,0.0,0.0,75,0.00,,,0.00,WUHU216HW,2013-07-18 09:46:00,
2013-07-18 03:51:00,56.9,49.0,30.20,North,0,0.0,0.0,75,0.00,,,0.00,WUHU216HW,2013-07-18 09:51:00,
2013-07-18 03:56:00,56.9,49.3,30.20,North,0,0.0,0.0,76,0.00,,,0.00,WUHU216HW,2013-07-18 09:56:00,
2013-07-18 04:01:00,56.9,49.3,30.20,North,0,0.0,0.0,76,0.00,,,0.00,WUHU216HW,2013-07-18 10:01:00,
2013-07-18 04:06:00,56.9,49.3,30.20,North,0,0.0,0.0,76,0.00,,,0.00,WUHU216HW,2013-07-18 10:06:00,
2013-07-18 04:11:00,56.5,49.0,30.20,North,0,0.0,0.0,76,0.00,,,0.00,WUHU216HW,2013-07-18 10:11:00,
2013-07-18 04:16:00,56.5,49.0,30.20,North,0,0.0,0.0,76,0.00,,,0.00,WUHU216HW,2013-07-18 10:16:00,
2013-07-18 04:21:00,56.2,48.3,30.20,North,0,0.0,0.0,75,0.00,,,0.00,WUHU216HW,2013-07-18 10:21:00,
2013-07-18 04:26:00,55.8,48.3,30.20,North,0,0.0,0.0,76,0.00,,,0.00,WUHU216HW,2013-07-18 10:26:00,
2013-07-18 04:31:00,55.6,48.2,30.20,North,0,0.0,0.0,76,0.00,,,0.00,WUHU216HW,2013-07-18 10:31:00,
2013-07-18 04:36:00,55.6,48.5,30.20,North,0,0.0,0.0,77,0.00,,,0.00,WUHU216HW,2013-07-18 10:36:00,
2013-07-18 04:41:00,55.4,48.3,30.20,North,0,0.0,0.0,77,0.00,,,0.00,WUHU216HW,2013-07-18 10:41:00,
2013-07-18 04:46:00,55.4,48.6,30.20,North,0,0.0,0.0,78,0.00,,,0.00,WUHU216HW,2013-07-18 10:46:00,
2013-07-18 04:51:00,55.4,48.6,30.21,North,0,0.0,0.0,78,0.00,,,0.00,WUHU216HW,2013-07-18 10:51:00,
2013-07-18 04:56:00,55.4,48.6,30.20,North,0,0.0,0.0,78,0.00,,,0.00,WUHU216HW,2013-07-18 10:56:00,
2013-07-18 05:01:00,55.3,48.5,30.21,North,0,0.0,0.0,78,0.00,,,0.00,WUHU216HW,2013-07-18 11:01:00,
2013-07-18 05:06:00,55.1,48.7,30.21,North,0,0.0,0.0,79,0.00,,,0.00,WUHU216HW,2013-07-18 11:06:00,
2013-07-18 05:11:00,55.1,48.3,30.21,North,0,0.0,0.0,78,0.00,,,0.00,WUHU216HW,2013-07-18 11:11:00,
2013-07-18 05:16:00,54.9,48.5,30.21,North,0,0.0,0.0,79,0.00,,,0.00,WUHU216HW,2013-07-18 11:16:00,
2013-07-18 05:21:00,54.9,48.2,30.21,North,0,0.0,0.0,78,0.00,,,0.00,WUHU216HW,2013-07-18 11:21:00,
2013-07-18 05:26:00,54.7,48.0,30.21,North,0,0.0,0.0,78,0.00,,,0.00,WUHU216HW,2013-07-18 11:26:00,
2013-07-18 05:31:00,54.5,47.8,30.22,North,0,0.0,0.0,78,0.00,,,0.00,WUHU216HW,2013-07-18 11:31:00,
2013-07-18 05:36:00,54.4,47.6,30.21,North,0,0.0,0.0,78,0.00,,,0.00,WUHU216HW,2013-07-18 11:36:00,
2013-07-18 05:41:00,54.4,48.3,30.21,North,0,0.0,0.0,80,0.00,,,0.00,WUHU216HW,2013-07-18 11:41:00,
2013-07-18 05:46:00,54.4,48.3,30.21,North,0,0.0,0.0,80,0.00,,,0.00,WUHU216HW,2013-07-18 11:46:00,
2013-07-18 05:51:00,54.5,48.5,30.21,North,0,0.0,0.0,80,0.00,,,0.00,WUHU216HW,2013-07-18 11:51:00,
2013-07-18 05:56:00,54.5,48.5,30.21,North,0,0.0,0.0,80,0.00,,,0.00,WUHU216HW,2013-07-18 11:56:00,
2013-07-18 06:01:00,54.5,48.5,30.21,North,0,0.0,0.0,80,0.00,,,0.00,WUHU216HW,2013-07-18 12:01:00,
2013-07-18 06:06:00,54.5,48.5,30.22,North,0,0.0,0.0,80,0.00,,,0.00,WUHU216HW,2013-07-18 12:06:00,
2013-07-18 06:11:00,54.5,48.9,30.22,North,0,0.0,0.0,81,0.00,,,0.00,WUHU216HW,2013-07-18 12:11:00,
2013-07-18 06:16:00,54.5,48.9,30.22,North,0,0.0,0.0,81,0.00,,,0.00,WUHU216HW,2013-07-18 12:16:00,
2013-07-18 06:21:00,54.5,48.5,30.23,North,0,0.0,0.0,80,0.00,,,0.00,WUHU216HW,2013-07-18 12:21:00,
2013-07-18 06:26:00,54.5,48.5,30.23,North,0,0.0,0.0,80,0.00,,,0.00,WUHU216HW,2013-07-18 12:26:00,
2013-07-18 06:31:00,54.5,48.5,30.23,North,0,0.0,0.0,80,0.00,,,0.00,WUHU216HW,2013-07-18 12:31:00,
2013-07-18 06:36:00,54.7,48.7,30.23,North,0,0.0,0.0,80,0.00,,,0.00,WUHU216HW,2013-07-18 12:36:00,
2013-07-18 06:41:00,55.1,49.3,30.23,North,0,0.0,0.0,81,0.00,,,0.00,WUHU216HW,2013-07-18 12:41:00,
2013-07-18 06:46:00,55.3,49.5,30.23,North,0,0.0,0.0,81,0.00,,,0.00,WUHU216HW,2013-07-18 12:46:00,
2013-07-18 06:51:00,55.6,49.9,30.23,North,0,0.0,0.0,81,0.00,,,0.00,WUHU216HW,2013-07-18 12:51:00,
2013-07-18 06:56:00,56.0,50.2,30.23,North,0,0.0,0.0,81,0.00,,,0.00,WUHU216HW,2013-07-18 12:56:00,
2013-07-18 07:01:00,56.3,50.6,30.23,North,0,0.0,0.0,81,0.00,,,0.00,WUHU216HW,2013-07-18 13:01:00,
2013-07-18 07:06:00,56.9,51.1,30.23,North,0,0.0,0.0,81,0.00,,,0.00,WUHU216HW,2013-07-18 13:06:00,
2013-07-18 07:11:00,57.2,51.1,30.23,North,0,0.0,0.0,80,0.00,,,0.00,WUHU216HW,2013-07-18 13:11:00,
2013-07-18 07:16:00,57.6,51.1,30.23,North,0,0.0,0.0,79,0.00,,,0.00,WUHU216HW,2013-07-18 13:16:00,
2013-07-18 07:21:00,58.0,51.5,30.23,North,0,0.0,0.0,79,0.00,,,0.00,WUHU216HW,2013-07-18 13:21:00,
2013-07-18 07:26:00,58.5,52.0,30.23,North,0,0.0,0.0,79,0.00,,,0.00,WUHU216HW,2013-07-18 13:26:00,
2013-07-18 07:31:00,58.9,52.0,30.23,North,0,0.0,0.0,78,0.00,,,0.00,WUHU216HW,2013-07-18 13:31:00,
2013-07-18 07:36:00,59.6,52.7,30.23,North,0,0.0,0.0,78,0.00,,,0.00,WUHU216HW,2013-07-18 13:36:00,
2013-07-18 07:41:00,60.5,53.6,30.23,North,0,0.0,0.0,78,0.00,,,0.00,WUHU216HW,2013-07-18 13:41:00,
2013-07-18 07:46:00,61.6,54.3,30.24,North,0,0.0,0.0,77,0.00,,,0.00,WUHU216HW,2013-07-18 13:46:00,
2013-07-18 07:51:00,62.6,54.9,30.23,North,0,0.0,0.0,76,0.00,,,0.00,WUHU216HW,2013-07-18 13:51:00,
2013-07-18 07:56:00,63.4,55.6,30.23,North,0,0.0,0.0,76,0.00,,,0.00,WUHU216HW,2013-07-18 13:56:00,
2013-07-18 08:01:00,64.3,55.8,30.23,North,0,0.0,0.0,74,0.00,,,0.00,WUHU216HW,2013-07-18 14:01:00,
2013-07-18 08:06:00,65.0,56.2,30.23,North,0,0.0,0.0,73,0.00,,,0.00,WUHU216HW,2013-07-18 14:06:00,
2013-07-18 08:11:00,65.5,56.3,30.23,North,0,0.0,0.0,72,0.00,,,0.00,WUHU216HW,2013-07-18 14:11:00,
2013-07-18 08:16:00,65.9,56.3,30.23,North,0,0.0,0.0,71,0.00,,,0.00,WUHU216HW,2013-07-18 14:16:00,
2013-07-18 08:21:00,66.1,55.6,30.23,North,0,0.0,0.0,69,0.00,,,0.00,WUHU216HW,2013-07-18 14:21:00,
2013-07-18 08:26:00,66.1,55.6,30.23,North,0,0.0,0.0,69,0.00,,,0.00,WUHU216HW,2013-07-18 14:26:00,
2013-07-18 08:31:00,65.9,55.5,30.23,North,0,0.0,0.0,69,0.00,,,0.00,WUHU216HW,2013-07-18 14:31:00,
2013-07-18 08:36:00,65.9,55.5,30.23,North,0,0.0,0.0,69,0.00,,,0.00,WUHU216HW,2013-07-18 14:36:00,
2013-07-18 08:41:00,66.1,55.6,30.23,North,0,0.0,0.0,69,0.00,,,0.00,WUHU216HW,2013-07-18 14:41:00,
2013-07-18 08:46:00,66.6,56.5,30.23,North,0,0.0,0.0,70,0.00,,,0.00,WUHU216HW,2013-07-18 14:46:00,
2013-07-18 08:51:00,67.7,57.2,30.23,North,0,0.0,0.0,69,0.00,,,0.00,WUHU216HW,2013-07-18 14:51:00,
2013-07-18 08:56:00,68.8,57.3,30.23,North,0,0.0,0.0,67,0.00,,,0.00,WUHU216HW,2013-07-18 14:56:00,
2013-07-18 09:01:00,69.5,57.2,30.23,North,0,0.0,0.0,65,0.00,,,0.00,WUHU216HW,2013-07-18 15:01:00,
2013-07-18 09:06:00,69.8,57.1,30.23,North,0,0.0,0.0,64,0.00,,,0.00,WUHU216HW,2013-07-18 15:06:00,
2013-07-18 09:11:00,70.2,57.4,30.23,North,0,0.0,0.0,64,0.00,,,0.00,WUHU216HW,2013-07-18 15:11:00,
2013-07-18 09:16:00,70.6,57.3,30.23,North,0,0.0,0.0,63,0.00,,,0.00,WUHU216HW,2013-07-18 15:16:00,
2013-07-18 09:21:00,70.9,57.2,30.23,North,0,0.0,0.0,62,0.00,,,0.00,WUHU216HW,2013-07-18 15:21:00,
2013-07-18 09:26:00,71.3,57.2,30.23,North,0,0.0,0.0,61,0.00,,,0.00,WUHU216HW,2013-07-18 15:26:00,
2013-07-18 09:31:00,71.6,57.1,30.23,North,0,0.0,0.0,60,0.00,,,0.00,WUHU216HW,2013-07-18 15:31:00,
2013-07-18 09:36:00,72.0,56.3,30.23,North,0,0.0,0.0,58,0.00,,,0.00,WUHU216HW,2013-07-18 15:36:00,
2013-07-18 09:41:00,72.0,56.9,30.23,North,0,0.0,0.0,59,0.00,,,0.00,WUHU216HW,2013-07-18 15:41:00,
2013-07-18 09:46:00,72.5,56.3,30.23,North,0,0.0,0.0,57,0.00,,,0.00,WUHU216HW,2013-07-18 15:46:00,
2013-07-18 09:51:00,73.1,57.3,30.23,North,0,0.0,0.0,58,0.00,,,0.00,WUHU216HW,2013-07-18 15:51:00,
2013-07-18 09:56:00,73.4,57.2,30.23,North,0,0.0,0.0,57,0.00,,,0.00,WUHU216HW,2013-07-18 15:56:00,
2013-07-18 10:01:00,73.8,56.5,30.23,North,0,0.0,0.0,55,0.00,,,0.00,WUHU216HW,2013-07-18 16:01:00,
2013-07-18 10:06:00,74.2,56.9,30.23,North,0,0.0,0.0,55,0.00,,,0.00,WUHU216HW,2013-07-18 16:06:00,
2013-07-18 10:11:00,74.7,56.9,30.23,North,0,0.0,0.0,54,0.00,,,0.00,WUHU216HW,2013-07-18 16:11:00,
2013-07-18 10:16:00,75.2,56.4,30.23,North,0,0.0,0.0,52,0.00,,,0.00,WUHU216HW,2013-07-18 16:16:00,
2013-07-18 10:21:00,75.8,54.7,30.23,North,0,0.0,0.0,48,0.00,,,0.00,WUHU216HW,2013-07-18 16:21:00,
2013-07-18 10:26:00,76.0,54.3,30.23,North,0,0.0,0.0,47,0.00,,,0.00,WUHU216HW,2013-07-18 16:26:00,
2013-07-18 10:31:00,76.3,54.5,30.23,North,0,0.0,0.0,47,0.00,,,0.00,WUHU216HW,2013-07-18 16:31:00,
2013-07-18 10:36:00,76.5,53.6,30.23,North,0,0.0,0.0,45,0.00,,,0.00,WUHU216HW,2013-07-18 16:36:00,
2013-07-18 10:41:00,76.9,53.8,30.23,North,0,0.0,0.0,45,0.00,,,0.00,WUHU216HW,2013-07-18 16:41:00,
2013-07-18 10:46:00,77.4,53.1,30.23,North,0,0.0,0.0,43,0.00,,,0.00,WUHU216HW,2013-07-18 16:46:00,
2013-07-18 10:51:00,77.8,52.8,30.23,North,0,0.0,0.0,42,0.00,,,0.00,WUHU216HW,2013-07-18 16:51:00,
2013-07-18 10:56:00,78.3,52.7,30.23,North,0,0.0,0.0,41,0.00,,,0.00,WUHU216HW,2013-07-18 16:56:00,
2013-07-18 11:01:00,78.8,53.2,30.23,North,0,0.0,0.0,41,0.00,,,0.00,WUHU216HW,2013-07-18 17:01:00,
2013-07-18 11:06:00,79.0,50.4,30.23,North,0,0.0,0.0,37,0.00,,,0.00,WUHU216HW,2013-07-18 17:06:00,
2013-07-18 11:11:00,78.7,50.0,30.23,North,0,0.0,0.0,37,0.00,,,0.00,WUHU216HW,2013-07-18 17:11:00,
2013-07-18 11:16:00,78.5,50.0,30.23,North,0,0.0,0.0,37,0.00,,,0.00,WUHU216HW,2013-07-18 17:16:00,
2013-07-18 11:21:00,78.7,48.5,30.23,North,0,0.0,0.0,35,0.00,,,0.00,WUHU216HW,2013-07-18 17:21:00,
2013-07-18 11:26:00,78.7,47.8,30.23,North,0,0.0,0.0,34,0.00,,,0.00,WUHU216HW,2013-07-18 17:26:00,
2013-07-18 11:31:00,79.0,48.1,30.23,North,0,0.0,0.0,34,0.00,,,0.00,WUHU216HW,2013-07-18 17:31:00,
2013-07-18 11:36:00,79.6,50.9,30.22,North,0,0.0,0.0,37,0.00,,,0.00,WUHU216HW,2013-07-18 17:36:00,
2013-07-18 11:41:00,80.3,51.6,30.22,North,0,0.0,0.0,37,0.00,,,0.00,WUHU216HW,2013-07-18 17:41:00,
2013-07-18 11:46:00,80.8,49.7,30.22,North,0,0.0,0.0,34,0.00,,,0.00,WUHU216HW,2013-07-18 17:46:00,
2013-07-18 11:51:00,81.4,51.0,30.22,North,0,0.0,0.0,35,0.00,,,0.00,WUHU216HW,2013-07-18 17:51:00,
2013-07-18 11:56:00,82.1,50.0,30.22,North,0,0.0,0.0,33,0.00,,,0.00,WUHU216HW,2013-07-18 17:56:00,
2013-07-18 12:01:00,82.4,49.5,30.22,North,0,0.0,0.0,32,0.00,,,0.00,WUHU216HW,2013-07-18 18:01:00,
2013-07-18 12:06:00,82.8,49.8,30.21,North,0,0.0,0.0,32,0.00,,,0.00,WUHU216HW,2013-07-18 18:06:00,
2013-07-18 12:11:00,83.2,50.1,30.21,North,0,0.0,0.0,32,0.00,,,0.00,WUHU216HW,2013-07-18 18:11:00,
2013-07-18 12:16:00,83.5,50.4,30.21,North,0,0.0,0.0,32,0.00,,,0.00,WUHU216HW,2013-07-18 18:16:00,
2013-07-18 12:21:00,83.5,50.4,30.21,North,0,0.0,0.0,32,0.00,,,0.00,WUHU216HW,2013-07-18 18:21:00,
2013-07-18 12:26:00,83.7,49.1,30.21,North,0,0.0,0.0,30,0.00,,,0.00,WUHU216HW,2013-07-18 18:26:00,
2013-07-18 12:31:00,84.1,49.3,30.20,North,0,0.0,0.0,30,0.00,,,0.00,WUHU216HW,2013-07-18 18:31:00,
2013-07-18 12:36:00,84.2,47.3,30.20,North,0,0.0,0.0,28,0.00,,,0.00,WUHU216HW,2013-07-18 18:36:00,
2013-07-18 12:41:00,84.6,45.5,30.20,North,0,0.0,0.0,26,0.00,,,0.00,WUHU216HW,2013-07-18 18:41:00,
2013-07-18 12:46:00,85.0,48.0,30.20,North,0,0.0,0.0,28,0.00,,,0.00,WUHU216HW,2013-07-18 18:46:00,
2013-07-18 12:51:00,85.7,48.6,30.19,North,0,0.0,0.0,28,0.00,,,0.00,WUHU216HW,2013-07-18 18:51:00,
2013-07-18 12:56:00,86.0,47.9,30.19,North,0,0.0,0.0,27,0.00,,,0.00,WUHU216HW,2013-07-18 18:56:00,
2013-07-18 13:01:00,86.2,45.9,30.19,North,0,0.0,0.0,25,0.00,,,0.00,WUHU216HW,2013-07-18 19:01:00,
2013-07-18 13:06:00,86.4,46.0,30.19,North,0,0.0,0.0,25,0.00,,,0.00,WUHU216HW,2013-07-18 19:06:00,
2013-07-18 13:11:00,86.6,41.9,30.19,North,0,0.0,0.0,21,0.00,,,0.00,WUHU216HW,2013-07-18 19:11:00,
2013-07-18 13:16:00,86.2,44.8,30.19,North,0,0.0,0.0,24,0.00,,,0.00,WUHU216HW,2013-07-18 19:16:00,
2013-07-18 13:21:00,87.1,44.5,30.19,North,0,0.0,0.0,23,0.00,,,0.00,WUHU216HW,2013-07-18 19:21:00,
2013-07-18 13:26:00,87.8,44.1,30.18,North,0,0.0,0.0,22,0.00,,,0.00,WUHU216HW,2013-07-18 19:26:00,
2013-07-18 13:31:00,88.2,45.5,30.19,North,0,0.0,0.0,23,0.00,,,0.00,WUHU216HW,2013-07-18 19:31:00,
2013-07-18 13:36:00,87.8,45.1,30.18,North,0,0.0,0.0,23,0.00,,,0.00,WUHU216HW,2013-07-18 19:36:00,
2013-07-18 13:41:00,87.8,45.1,30.18,North,0,0.0,0.0,23,0.00,,,0.00,WUHU216HW,2013-07-18 19:41:00,
2013-07-18 13:46:00,87.5,42.7,30.18,North,0,0.0,0.0,21,0.00,,,0.00,WUHU216HW,2013-07-18 19:46:00,
2013-07-18 13:51:00,87.5,43.7,30.18,North,0,0.0,0.0,22,0.00,,,0.00,WUHU216HW,2013-07-18 19:51:00,
2013-07-18 13:56:00,88.2,44.4,30.18,North,0,0.0,0.0,22,0.00,,,0.00,WUHU216HW,2013-07-18 19:56:00,
2013-07-18 14:01:00,88.9,44.9,30.18,North,0,0.0,0.0,22,0.00,,,0.00,WUHU216HW,2013-07-18 20:01:00,
2013-07-18 14:06:00,89.5,45.4,30.18,North,0,0.0,0.0,22,0.00,,,0.00,WUHU216HW,2013-07-18 20:06:00,
2013-07-18 14:11:00,90.2,44.9,30.18,North,0,0.0,0.0,21,0.00,,,0.00,WUHU216HW,2013-07-18 20:11:00,
2013-07-18 14:16:00,90.7,45.4,30.18,North,0,0.0,0.0,21,0.00,,,0.00,WUHU216HW,2013-07-18 20:16:00,
2013-07-18 14:21:00,90.7,45.4,30.18,North,0,0.0,0.0,21,0.00,,,0.00,WUHU216HW,2013-07-18 20:21:00,
2013-07-18 14:26:00,90.7,45.4,30.17,North,0,0.0,0.0,21,0.00,,,0.00,WUHU216HW,2013-07-18 20:26:00,
2013-07-18 14:31:00,91.1,42.8,30.17,North,0,0.0,0.0,19,0.00,,,0.00,WUHU216HW,2013-07-18 20:31:00,
2013-07-18 14:36:00,91.4,43.1,30.17,North,0,0.0,0.0,19,0.00,,,0.00,WUHU216HW,2013-07-18 20:36:00,
2013-07-18 14:41:00,91.3,42.9,30.17,North,0,0.0,0.0,19,0.00,,,0.00,WUHU216HW,2013-07-18 20:41:00,
2013-07-18 14:46:00,91.1,42.8,30.17,North,0,0.0,0.0,19,0.00,,,0.00,WUHU216HW,2013-07-18 20:46:00,
2013-07-18 14:51:00,90.5,42.4,30.17,North,0,0.0,0.0,19,0.00,,,0.00,WUHU216HW,2013-07-18 20:51:00,
2013-07-18 14:56:00,90.4,40.5,30.16,North,0,0.0,0.0,18,0.00,,,0.00,WUHU216HW,2013-07-18 20:56:00,
2013-07-18 15:01:00,90.5,42.4,30.16,North,0,0.0,0.0,19,0.00,,,0.00,WUHU216HW,2013-07-18 21:01:00,
2013-07-18 15:06:00,91.1,42.8,30.16,North,0,0.0,0.0,19,0.00,,,0.00,WUHU216HW,2013-07-18 21:06:00,
2013-07-18 15:11:00,91.6,41.5,30.16,North,0,0.0,0.0,18,0.00,,,0.00,WUHU216HW,2013-07-18 21:11:00,
2013-07-18 15:16:00,91.8,41.6,30.16,North,0,0.0,0.0,18,0.00,,,0.00,WUHU216HW,2013-07-18 21:16:00,
2013-07-18 15:21:00,92.3,40.3,30.16,North,0,0.0,0.0,17,0.00,,,0.00,WUHU216HW,2013-07-18 21:21:00,
2013-07-18 15:26:00,92.9,40.7,30.16,North,0,0.0,0.0,17,0.00,,,0.00,WUHU216HW,2013-07-18 21:26:00,
2013-07-18 15:31:00,93.2,42.8,30.16,North,0,0.0,0.0,18,0.00,,,0.00,WUHU216HW,2013-07-18 21:31:00,
2013-07-18 15:36:00,93.6,43.0,30.15,North,0,0.0,0.0,18,0.00,,,0.00,WUHU216HW,2013-07-18 21:36:00,
2013-07-18 15:41:00,92.9,42.5,30.15,North,0,0.0,0.0,18,0.00,,,0.00,WUHU216HW,2013-07-18 21:41:00,
2013-07-18 15:46:00,92.9,42.5,30.15,North,0,0.0,0.0,18,0.00,,,0.00,WUHU216HW,2013-07-18 21:46:00,
2013-07-18 15:51:00,93.1,39.1,30.15,North,0,0.0,0.0,16,0.00,,,0.00,WUHU216HW,2013-07-18 21:51:00,
2013-07-18 15:56:00,92.2,38.3,30.15,North,0,0.0,0.0,16,0.00,,,0.00,WUHU216HW,2013-07-18 21:56:00,
2013-07-18 16:01:00,90.9,37.5,30.15,North,0,0.0,0.0,16,0.00,,,0.00,WUHU216HW,2013-07-18 22:01:00,
2013-07-18 16:06:00,90.7,37.3,30.14,North,0,0.0,0.0,16,0.00,,,0.00,WUHU216HW,2013-07-18 22:06:00,
2013-07-18 16:11:00,90.5,35.4,30.15,North,0,0.0,0.0,15,0.00,,,0.00,WUHU216HW,2013-07-18 22:11:00,
2013-07-18 16:16:00,90.7,39.0,30.14,North,0,0.0,0.0,17,0.00,,,0.00,WUHU216HW,2013-07-18 22:16:00,
2013-07-18 16:21:00,91.1,35.8,30.14,North,0,0.0,0.0,15,0.00,,,0.00,WUHU216HW,2013-07-18 22:21:00,
2013-07-18 16:26:00,90.7,32.1,30.13,North,0,0.0,0.0,13,0.00,,,0.00,WUHU216HW,2013-07-18 22:26:00,
2013-07-18 16:31:00,91.1,32.3,30.13,North,0,0.0,0.0,13,0.00,,,0.00,WUHU216HW,2013-07-18 22:31:00,
2013-07-18 16:36:00,91.1,32.3,30.13,North,0,0.0,0.0,13,0.00,,,0.00,WUHU216HW,2013-07-18 22:36:00,
2013-07-18 16:41:00,91.3,30.7,30.13,North,0,0.0,0.0,12,0.00,,,0.00,WUHU216HW,2013-07-18 22:41:00,
2013-07-18 16:46:00,92.5,29.9,30.13,North,0,0.0,0.0,11,0.00,,,0.00,WUHU216HW,2013-07-18 22:46:00,
2013-07-18 16:51:00,93.2,30.4,30.13,North,0,0.0,0.0,11,0.00,,,0.00,WUHU216HW,2013-07-18 22:51:00,
2013-07-18 16:56:00,93.4,30.5,30.13,North,0,0.0,0.0,11,0.00,,,0.00,WUHU216HW,2013-07-18 22:56:00,
2013-07-18 17:01:00,93.6,30.7,30.13,North,0,0.0,0.0,11,0.00,,,0.00,WUHU216HW,2013-07-18 23:01:00,
2013-07-18 17:06:00,93.4,30.5,30.13,North,0,0.0,0.0,11,0.00,,,0.00,WUHU216HW,2013-07-18 23:06:00,
2013-07-18 17:11:00,93.6,32.4,30.13,North,0,0.0,0.0,12,0.00,,,0.00,WUHU216HW,2013-07-18 23:11:00,
2013-07-18 17:16:00,93.6,30.7,30.13,North,0,0.0,0.0,11,0.00,,,0.00,WUHU216HW,2013-07-18 23:16:00,
2013-07-18 17:21:00,93.8,29.1,30.13,North,0,0.0,0.0,10,0.00,,,0.00,WUHU216HW,2013-07-18 23:21:00,
2013-07-18 17:26:00,93.6,30.7,30.13,North,0,0.0,0.0,11,0.00,,,0.00,WUHU216HW,2013-07-18 23:26:00,
2013-07-18 17:31:00,94.0,31.0,30.13,North,0,0.0,0.0,11,0.00,,,0.00,WUHU216HW,2013-07-18 23:31:00,
2013-07-18 17:36:00,94.3,31.2,30.13,North,0,0.0,0.0,11,0.00,,,0.00,WUHU216HW,2013-07-18 23:36:00,
2013-07-18 17:41:00,94.3,29.5,30.13,North,0,0.0,0.0,10,0.00,,,0.00,WUHU216HW,2013-07-18 23:41:00,
2013-07-18 17:46:00,94.1,29.3,30.12,North,0,0.0,0.0,10,0.00,,,0.00,WUHU216HW,2013-07-18 23:46:00,
2013-07-18 17:51:00,94.0,29.2,30.13,North,0,0.0,0.0,10,0.00,,,0.00,WUHU216HW,2013-07-18 23:51:00,
2013-07-18 17:56:00,93.8,32.6,30.12,North,0,0.0,0.0,12,0.00,,,0.00,WUHU216HW,2013-07-18 23:56:00,
2013-07-18 18:01:00,94.7,31.5,30.12,North,0,0.0,0.0,11,0.00,,,0.00,WUHU216HW,2013-07-19 00:01:00,
2013-07-18 18:06:00,94.1,31.2,30.12,North,0,0.0,0.0,11,0.00,,,0.00,WUHU216HW,2013-07-19 00:06:00,
2013-07-18 18:11:00,93.6,30.7,30.12,North,0,0.0,0.0,11,0.00,,,0.00,WUHU216HW,2013-07-19 00:11:00,
2013-07-18 18:16:00,94.3,31.2,30.12,North,0,0.0,0.0,11,0.00,,,0.00,WUHU216HW,2013-07-19 00:16:00,
2013-07-18 18:21:00,94.0,29.2,30.12,North,0,0.0,0.0,10,0.00,,,0.00,WUHU216HW,2013-07-19 00:21:00,
2013-07-18 18:26:00,93.8,29.1,30.12,North,0,0.0,0.0,10,0.00,,,0.00,WUHU216HW,2013-07-19 00:26:00,
2013-07-18 18:31:00,93.6,28.9,30.12,North,0,0.0,0.0,10,0.00,,,0.00,WUHU216HW,2013-07-19 00:31:00,
2013-07-18 18:36:00,94.5,29.6,30.12,North,0,0.0,0.0,10,0.00,,,0.00,WUHU216HW,2013-07-19 00:36:00,
2013-07-18 18:41:00,94.3,29.5,30.12,North,0,0.0,0.0,10,0.00,,,0.00,WUHU216HW,2013-07-19 00:41:00,
2013-07-18 18:46:00,93.6,28.9,30.12,North,0,0.0,0.0,10,0.00,,,0.00,WUHU216HW,2013-07-19 00:46:00,
2013-07-18 18:51:00,92.9,28.4,30.12,North,0,0.0,0.0,10,0.00,,,0.00,WUHU216HW,2013-07-19 00:51:00,
2013-07-18 18:56:00,92.5,29.9,30.12,North,0,0.0,0.0,11,0.00,,,0.00,WUHU216HW,2013-07-19 00:56:00,
2013-07-18 19:01:00,92.5,28.1,30.12,North,0,0.0,0.0,10,0.00,,,0.00,WUHU216HW,2013-07-19 01:01:00,
2013-07-18 19:06:00,92.9,28.4,30.12,North,0,0.0,0.0,10,0.00,,,0.00,WUHU216HW,2013-07-19 01:06:00,
2013-07-18 19:11:00,92.7,28.3,30.12,North,0,0.0,0.0,10,0.00,,,0.00,WUHU216HW,2013-07-19 01:11:00,
2013-07-18 19:16:00,92.7,28.3,30.12,North,0,0.0,0.0,10,0.00,,,0.00,WUHU216HW,2013-07-19 01:16:00,
2013-07-18 19:21:00,92.9,28.4,30.12,North,0,0.0,0.0,10,0.00,,,0.00,WUHU216HW,2013-07-19 01:21:00,
2013-07-18 19:26:00,92.7,28.3,30.12,North,0,0.0,0.0,10,0.00,,,0.00,WUHU216HW,2013-07-19 01:26:00,
2013-07-18 19:31:00,92.3,28.0,30.12,North,0,0.0,0.0,10,0.00,,,0.00,WUHU216HW,2013-07-19 01:31:00,
2013-07-18 19:36:00,91.8,27.6,30.12,North,0,0.0,0.0,10,0.00,,,0.00,WUHU216HW,2013-07-19 01:36:00,
2013-07-18 19:41:00,91.4,27.4,30.12,North,0,0.0,0.0,10,0.00,,,0.00,WUHU216HW,2013-07-19 01:41:00,
2013-07-18 19:46:00,91.1,28.8,30.12,North,0,0.0,0.0,11,0.00,,,0.00,WUHU216HW,2013-07-19 01:46:00,
2013-07-18 19:51:00,90.7,28.5,30.12,North,0,0.0,0.0,11,0.00,,,0.00,WUHU216HW,2013-07-19 01:51:00,
2013-07-18 19:56:00,90.2,28.1,30.12,North,0,0.0,0.0,11,0.00,,,0.00,WUHU216HW,2013-07-19 01:56:00,
2013-07-18 20:01:00,88.9,27.2,30.12,North,0,0.0,0.0,11,0.00,,,0.00,WUHU216HW,2013-07-19 02:01:00,
2013-07-18 20:06:00,87.8,28.1,30.12,North,0,0.0,0.0,12,0.00,,,0.00,WUHU216HW,2013-07-19 02:06:00,
2013-07-18 20:11:00,87.1,27.6,30.12,North,0,0.0,0.0,12,0.00,,,0.00,WUHU216HW,2013-07-19 02:11:00,
2013-07-18 20:16:00,86.8,27.3,30.12,North,0,0.0,0.0,12,0.00,,,0.00,WUHU216HW,2013-07-19 02:16:00,
2013-07-18 20:21:00,86.4,26.9,30.12,North,0,0.0,0.0,12,0.00,,,0.00,WUHU216HW,2013-07-19 02:21:00,
2013-07-18 20:26:00,86.0,26.6,30.12,North,0,0.0,0.0,12,0.00,,,0.00,WUHU216HW,2013-07-19 02:26:00,
2013-07-18 20:31:00,85.7,28.1,30.13,North,0,0.0,0.0,13,0.00,,,0.00,WUHU216HW,2013-07-19 02:31:00,
2013-07-18 20:36:00,85.3,27.8,30.13,North,0,0.0,0.0,13,0.00,,,0.00,WUHU216HW,2013-07-19 02:36:00,
2013-07-18 20:41:00,85.0,27.5,30.13,North,0,0.0,0.0,13,0.00,,,0.00,WUHU216HW,2013-07-19 02:41:00,
2013-07-18 20:46:00,84.2,26.9,30.13,North,0,0.0,0.0,13,0.00,,,0.00,WUHU216HW,2013-07-19 02:46:00,
2013-07-18 20:51:00,83.9,26.6,30.13,North,0,0.0,0.0,13,0.00,,,0.00,WUHU216HW,2013-07-19 02:51:00,
2013-07-18 20:56:00,83.3,28.0,30.13,North,0,0.0,0.0,14,0.00,,,0.00,WUHU216HW,2013-07-19 02:56:00,
2013-07-18 21:01:00,83.0,29.4,30.13,North,0,0.0,0.0,15,0.00,,,0.00,WUHU216HW,2013-07-19 03:01:00,
2013-07-18 21:06:00,82.8,29.3,30.13,North,0,0.0,0.0,15,0.00,,,0.00,WUHU216HW,2013-07-19 03:06:00,
2013-07-18 21:11:00,82.3,28.8,30.14,North,0,0.0,0.0,15,0.00,,,0.00,WUHU216HW,2013-07-19 03:11:00,
2013-07-18 21:16:00,81.9,28.5,30.14,North,0,0.0,0.0,15,0.00,,,0.00,WUHU216HW,2013-07-19 03:16:00,
2013-07-18 21:21:00,81.7,28.5,30.14,North,0,0.0,0.0,15,0.00,,,0.00,WUHU216HW,2013-07-19 03:21:00,
2013-07-18 21:26:00,81.2,28.0,30.14,North,0,0.0,0.0,15,0.00,,,0.00,WUHU216HW,2013-07-19 03:26:00,
2013-07-18 21:31:00,81.0,29.5,30.14,North,0,0.0,0.0,16,0.00,,,0.00,WUHU216HW,2013-07-19 03:31:00,
2013-07-18 21:36:00,80.5,29.1,30.14,North,0,0.0,0.0,16,0.00,,,0.00,WUHU216HW,2013-07-19 03:36:00,
2013-07-18 21:41:00,80.3,28.9,30.14,North,0,0.0,0.0,16,0.00,,,0.00,WUHU216HW,2013-07-19 03:41:00,
2013-07-18 21:46:00,79.7,30.2,30.15,North,0,0.0,0.0,17,0.00,,,0.00,WUHU216HW,2013-07-19 03:46:00,
2013-07-18 21:51:00,78.7,29.3,30.15,North,0,0.0,0.0,17,0.00,,,0.00,WUHU216HW,2013-07-19 03:51:00,
2013-07-18 21:56:00,77.4,29.9,30.15,North,0,0.0,0.0,18,0.00,,,0.00,WUHU216HW,2013-07-19 03:56:00,
2013-07-18 22:01:00,76.7,29.3,30.15,North,0,0.0,0.0,18,0.00,,,0.00,WUHU216HW,2013-07-19 04:01:00,
2013-07-18 22:06:00,76.0,30.4,30.15,North,0,0.0,0.0,19,0.00,,,0.00,WUHU216HW,2013-07-19 04:06:00,
2013-07-18 22:11:00,75.4,30.0,30.15,North,0,0.0,0.0,19,0.00,,,0.00,WUHU216HW,2013-07-19 04:11:00,
2013-07-18 22:16:00,75.1,29.7,30.15,North,0,0.0,0.0,19,0.00,,,0.00,WUHU216HW,2013-07-19 04:16:00,
2013-07-18 22:21:00,74.7,29.4,30.15,North,0,0.0,0.0,19,0.00,,,0.00,WUHU216HW,2013-07-19 04:21:00,
2013-07-18 22:26:00,74.2,29.0,30.15,North,0,0.0,0.0,19,0.00,,,0.00,WUHU216HW,2013-07-19 04:26:00,
2013-07-18 22:31:00,73.6,31.2,30.16,North,0,0.0,0.0,21,0.00,,,0.00,WUHU216HW,2013-07-19 04:31:00,
2013-07-18 22:36:00,72.7,30.4,30.16,North,0,0.0,0.0,21,0.00,,,0.00,WUHU216HW,2013-07-19 04:36:00,
2013-07-18 22:41:00,71.8,30.7,30.16,North,0,0.0,0.0,22,0.00,,,0.00,WUHU216HW,2013-07-19 04:41:00,
2013-07-18 22:46:00,71.1,30.1,30.16,North,0,0.0,0.0,22,0.00,,,0.00,WUHU216HW,2013-07-19 04:46:00,
2013-07-18 22:51:00,70.6,29.6,30.16,North,0,0.0,0.0,22,0.00,,,0.00,WUHU216HW,2013-07-19 04:51:00,
2013-07-18 22:56:00,70.0,30.2,30.16,North,0,0.0,0.0,23,0.00,,,0.00,WUHU216HW,2013-07-19 04:56:00,
2013-07-18 23:01:00,69.5,29.7,30.16,North,0,0.0,0.0,23,0.00,,,0.00,WUHU216HW,2013-07-19 05:01:00,
2013-07-18 23:06:00,69.1,29.4,30.16,North,0,0.0,0.0,23,0.00,,,0.00,WUHU216HW,2013-07-19 05:06:00,
2013-07-18 23:11:00,68.8,30.2,30.16,North,0,0.0,0.0,24,0.00,,,0.00,WUHU216HW,2013-07-19 05:11:00,
2013-07-18 23:16:00,68.4,29.8,30.16,North,0,0.0,0.0,24,0.00,,,0.00,WUHU216HW,2013-07-19 05:16:00,
2013-07-18 23:21:00,68.0,29.5,30.17,North,0,0.0,0.0,24,0.00,,,0.00,WUHU216HW,2013-07-19 05:21:00,
2013-07-18 23:26:00,67.9,30.3,30.17,North,0,0.0,0.0,25,0.00,,,0.00,WUHU216HW,2013-07-19 05:26:00,
2013-07-18 23:31:00,67.3,29.9,30.17,North,0,0.0,0.0,25,0.00,,,0.00,WUHU216HW,2013-07-19 05:31:00,
2013-07-18 23:36:00,67.1,29.7,30.16,North,0,0.0,0.0,25,0.00,,,0.00,WUHU216HW,2013-07-19 05:36:00,
2013-07-18 23:41:00,66.6,30.3,30.16,North,0,0.0,0.0,26,0.00,,,0.00,WUHU216HW,2013-07-19 05:41:00,
2013-07-18 23:46:00,66.2,30.0,30.17,North,0,0.0,0.0,26,0.00,,,0.00,WUHU216HW,2013-07-19 05:46:00,
2013-07-18 23:51:00,65.9,29.7,30.17,North,0,0.0,0.0,26,0.00,,,0.00,WUHU216HW,2013-07-19 05:51:00,
2013-07-18 23:56:00,65.7,30.5,30.17,North,0,0.0,0.0,27,0.00,,,0.00,WUHU216HW,2013-07-19 05:56:00,